sensor_id;sensor_type;location;lat;lon;timestamp;temperature;humidity
16863;DHT22;52193;48.216;-1.698;2023-11-19T00:00:05;17.20;99.90
16863;DHT22;52193;48.216;-1.698;2023-11-19T00:02:37;17.20;99.90
16863;DHT22;52193;48.216;-1.698;2023-11-19T00:05:05;17.20;99.90
16863;DHT22;52193;48.216;-1.698;2023-11-19T00:07:35;17.20;99.90
16863;DHT22;52193;48.216;-1.698;2023-11-19T00:10:03;17.20;99.90
16863;DHT22;52193;48.216;-1.698;2023-11-19T00:12:36;17.20;99.90
16863;DHT22;52193;48.216;-1.698;2023-11-19T00:15:04;17.20;99.90
16863;DHT22;52193;48.216;-1.698;2023-11-19T00:17:31;17.20;99.90
16863;DHT22;52193;48.216;-1.698;2023-11-19T00:19:58;17.20;99.90
16863;DHT22;52193;48.216;-1.698;2023-11-19T00:22:26;17.10;99.90
16863;DHT22;52193;48.216;-1.698;2023-11-19T00:24:53;17.10;99.90
16863;DHT22;52193;48.216;-1.698;2023-11-19T00:27:20;17.10;99.90
16863;DHT22;52193;48.216;-1.698;2023-11-19T00:29:47;17.10;99.90
16863;DHT22;52193;48.216;-1.698;2023-11-19T00:32:13;17.00;99.90
16863;DHT22;52193;48.216;-1.698;2023-11-19T00:34:41;17.00;99.90
16863;DHT22;52193;48.216;-1.698;2023-11-19T00:37:09;17.00;99.90
16863;DHT22;52193;48.216;-1.698;2023-11-19T00:39:37;17.00;99.90
16863;DHT22;52193;48.216;-1.698;2023-11-19T00:42:04;17.00;99.90
16863;DHT22;52193;48.216;-1.698;2023-11-19T00:44:31;17.00;99.90
16863;DHT22;52193;48.216;-1.698;2023-11-19T00:46:58;17.00;99.90
16863;DHT22;52193;48.216;-1.698;2023-11-19T00:49:26;16.90;99.90
16863;DHT22;52193;48.216;-1.698;2023-11-19T00:51:53;17.00;99.90
16863;DHT22;52193;48.216;-1.698;2023-11-19T00:54:20;16.90;99.90
16863;DHT22;52193;48.216;-1.698;2023-11-19T00:56:51;16.90;99.90
16863;DHT22;52193;48.216;-1.698;2023-11-19T00:59:17;16.80;99.90
16863;DHT22;52193;48.216;-1.698;2023-11-19T01:01:44;16.80;99.90
16863;DHT22;52193;48.216;-1.698;2023-11-19T01:04:11;16.80;99.90
16863;DHT22;52193;48.216;-1.698;2023-11-19T01:06:38;16.80;99.90
16863;DHT22;52193;48.216;-1.698;2023-11-19T01:09:05;16.80;99.90
16863;DHT22;52193;48.216;-1.698;2023-11-19T01:11:34;16.80;99.90
16863;DHT22;52193;48.216;-1.698;2023-11-19T01:14:02;16.80;99.90
16863;DHT22;52193;48.216;-1.698;2023-11-19T01:16:29;16.80;99.90
16863;DHT22;52193;48.216;-1.698;2023-11-19T01:18:56;16.80;99.90
16863;DHT22;52193;48.216;-1.698;2023-11-19T01:21:23;16.70;99.90
16863;DHT22;52193;48.216;-1.698;2023-11-19T01:23:50;16.70;99.90
16863;DHT22;52193;48.216;-1.698;2023-11-19T01:26:17;16.70;99.90
16863;DHT22;52193;48.216;-1.698;2023-11-19T01:28:43;16.60;99.90
16863;DHT22;52193;48.216;-1.698;2023-11-19T01:31:15;16.60;99.90
16863;DHT22;52193;48.216;-1.698;2023-11-19T01:33:42;16.60;99.90
16863;DHT22;52193;48.216;-1.698;2023-11-19T01:36:12;16.60;99.90
16863;DHT22;52193;48.216;-1.698;2023-11-19T01:38:39;16.60;99.90
16863;DHT22;52193;48.216;-1.698;2023-11-19T01:41:06;16.60;99.90
16863;DHT22;52193;48.216;-1.698;2023-11-19T01:43:34;16.60;99.90
16863;DHT22;52193;48.216;-1.698;2023-11-19T01:46:01;16.50;99.90
16863;DHT22;52193;48.216;-1.698;2023-11-19T01:48:31;16.60;99.90
16863;DHT22;52193;48.216;-1.698;2023-11-19T01:51:00;16.60;99.90
16863;DHT22;52193;48.216;-1.698;2023-11-19T01:53:28;16.60;99.90
16863;DHT22;52193;48.216;-1.698;2023-11-19T01:55:56;16.60;99.90
16863;DHT22;52193;48.216;-1.698;2023-11-19T01:58:23;16.60;99.90
16863;DHT22;52193;48.216;-1.698;2023-11-19T02:00:50;16.50;99.90
16863;DHT22;52193;48.216;-1.698;2023-11-19T02:03:17;16.50;99.90
16863;DHT22;52193;48.216;-1.698;2023-11-19T02:05:48;16.50;99.90
16863;DHT22;52193;48.216;-1.698;2023-11-19T02:08:16;16.50;99.90
16863;DHT22;52193;48.216;-1.698;2023-11-19T02:10:43;16.50;99.90
16863;DHT22;52193;48.216;-1.698;2023-11-19T02:13:10;16.40;99.90
16863;DHT22;52193;48.216;-1.698;2023-11-19T02:15:39;16.40;99.90
16863;DHT22;52193;48.216;-1.698;2023-11-19T02:18:19;16.40;99.90
16863;DHT22;52193;48.216;-1.698;2023-11-19T02:20:49;16.40;99.90
16863;DHT22;52193;48.216;-1.698;2023-11-19T02:23:16;16.40;99.90
16863;DHT22;52193;48.216;-1.698;2023-11-19T02:25:49;16.30;99.90
16863;DHT22;52193;48.216;-1.698;2023-11-19T02:28:19;16.30;99.90
16863;DHT22;52193;48.216;-1.698;2023-11-19T02:30:46;16.30;99.90
16863;DHT22;52193;48.216;-1.698;2023-11-19T02:33:13;16.30;99.90
16863;DHT22;52193;48.216;-1.698;2023-11-19T02:35:40;16.30;99.90
16863;DHT22;52193;48.216;-1.698;2023-11-19T02:38:07;16.30;99.90
16863;DHT22;52193;48.216;-1.698;2023-11-19T02:40:34;16.30;99.90
16863;DHT22;52193;48.216;-1.698;2023-11-19T02:43:01;16.30;99.90
16863;DHT22;52193;48.216;-1.698;2023-11-19T02:45:32;16.20;99.90
16863;DHT22;52193;48.216;-1.698;2023-11-19T02:47:59;16.20;99.90
16863;DHT22;52193;48.216;-1.698;2023-11-19T02:50:27;16.20;99.90
16863;DHT22;52193;48.216;-1.698;2023-11-19T02:52:55;16.20;99.90
16863;DHT22;52193;48.216;-1.698;2023-11-19T02:55:22;16.20;99.90
16863;DHT22;52193;48.216;-1.698;2023-11-19T02:57:50;16.20;99.90
16863;DHT22;52193;48.216;-1.698;2023-11-19T03:00:19;16.10;99.90
16863;DHT22;52193;48.216;-1.698;2023-11-19T03:02:51;16.10;99.90
16863;DHT22;52193;48.216;-1.698;2023-11-19T03:05:25;16.10;99.90
16863;DHT22;52193;48.216;-1.698;2023-11-19T03:07:55;16.10;99.90
16863;DHT22;52193;48.216;-1.698;2023-11-19T03:10:22;16.10;99.90
16863;DHT22;52193;48.216;-1.698;2023-11-19T03:12:49;16.00;99.90
16863;DHT22;52193;48.216;-1.698;2023-11-19T03:15:16;16.10;99.90
16863;DHT22;52193;48.216;-1.698;2023-11-19T03:17:43;16.10;99.90
16863;DHT22;52193;48.216;-1.698;2023-11-19T03:20:12;16.00;99.90
16863;DHT22;52193;48.216;-1.698;2023-11-19T03:22:41;16.00;99.90
16863;DHT22;52193;48.216;-1.698;2023-11-19T03:25:09;16.00;99.90
16863;DHT22;52193;48.216;-1.698;2023-11-19T03:27:36;16.10;99.90
16863;DHT22;52193;48.216;-1.698;2023-11-19T03:30:05;16.00;99.90
16863;DHT22;52193;48.216;-1.698;2023-11-19T03:32:32;16.10;99.90
16863;DHT22;52193;48.216;-1.698;2023-11-19T03:35:00;16.10;99.90
16863;DHT22;52193;48.216;-1.698;2023-11-19T03:37:28;16.10;99.90
16863;DHT22;52193;48.216;-1.698;2023-11-19T03:39:56;16.10;99.90
16863;DHT22;52193;48.216;-1.698;2023-11-19T03:42:25;16.10;99.90
16863;DHT22;52193;48.216;-1.698;2023-11-19T03:44:52;16.10;99.90
16863;DHT22;52193;48.216;-1.698;2023-11-19T03:47:19;16.10;99.90
16863;DHT22;52193;48.216;-1.698;2023-11-19T03:49:47;16.00;99.90
16863;DHT22;52193;48.216;-1.698;2023-11-19T03:52:15;16.00;99.90
16863;DHT22;52193;48.216;-1.698;2023-11-19T03:54:43;16.00;99.90
16863;DHT22;52193;48.216;-1.698;2023-11-19T03:57:11;16.00;99.90
16863;DHT22;52193;48.216;-1.698;2023-11-19T03:59:38;16.00;99.90
16863;DHT22;52193;48.216;-1.698;2023-11-19T04:02:04;15.90;99.90
16863;DHT22;52193;48.216;-1.698;2023-11-19T04:04:32;15.90;99.90
16863;DHT22;52193;48.216;-1.698;2023-11-19T04:07:00;15.90;99.90
16863;DHT22;52193;48.216;-1.698;2023-11-19T04:09:28;15.90;99.90
16863;DHT22;52193;48.216;-1.698;2023-11-19T04:11:56;15.90;99.90
16863;DHT22;52193;48.216;-1.698;2023-11-19T04:14:23;15.90;99.90
16863;DHT22;52193;48.216;-1.698;2023-11-19T04:16:50;15.90;99.90
16863;DHT22;52193;48.216;-1.698;2023-11-19T04:19:17;15.90;99.90
16863;DHT22;52193;48.216;-1.698;2023-11-19T04:21:44;15.90;99.90
16863;DHT22;52193;48.216;-1.698;2023-11-19T04:24:12;15.90;99.90
16863;DHT22;52193;48.216;-1.698;2023-11-19T04:26:40;15.80;99.90
16863;DHT22;52193;48.216;-1.698;2023-11-19T04:29:11;15.80;99.90
16863;DHT22;52193;48.216;-1.698;2023-11-19T04:31:38;15.80;99.90
16863;DHT22;52193;48.216;-1.698;2023-11-19T04:34:05;15.80;99.90
16863;DHT22;52193;48.216;-1.698;2023-11-19T04:36:33;15.70;99.90
16863;DHT22;52193;48.216;-1.698;2023-11-19T04:39:00;15.70;99.90
16863;DHT22;52193;48.216;-1.698;2023-11-19T04:41:27;15.70;99.90
16863;DHT22;52193;48.216;-1.698;2023-11-19T04:43:54;15.70;99.90
16863;DHT22;52193;48.216;-1.698;2023-11-19T04:46:23;15.70;99.90
16863;DHT22;52193;48.216;-1.698;2023-11-19T04:48:50;15.70;99.90
16863;DHT22;52193;48.216;-1.698;2023-11-19T04:51:17;15.80;99.90
16863;DHT22;52193;48.216;-1.698;2023-11-19T04:53:44;15.70;99.90
16863;DHT22;52193;48.216;-1.698;2023-11-19T04:56:11;15.70;99.90
16863;DHT22;52193;48.216;-1.698;2023-11-19T04:58:39;15.70;99.90
16863;DHT22;52193;48.216;-1.698;2023-11-19T05:01:06;15.70;99.90
16863;DHT22;52193;48.216;-1.698;2023-11-19T05:03:34;15.70;99.90
16863;DHT22;52193;48.216;-1.698;2023-11-19T05:06:01;15.70;99.90
16863;DHT22;52193;48.216;-1.698;2023-11-19T05:08:28;15.70;99.90
16863;DHT22;52193;48.216;-1.698;2023-11-19T05:10:55;15.70;99.90
16863;DHT22;52193;48.216;-1.698;2023-11-19T05:13:23;15.70;99.90
16863;DHT22;52193;48.216;-1.698;2023-11-19T05:15:50;15.70;99.90
16863;DHT22;52193;48.216;-1.698;2023-11-19T05:18:16;15.70;99.90
16863;DHT22;52193;48.216;-1.698;2023-11-19T05:20:45;15.70;99.90
16863;DHT22;52193;48.216;-1.698;2023-11-19T05:23:12;15.70;99.90
16863;DHT22;52193;48.216;-1.698;2023-11-19T05:25:39;15.70;99.90
16863;DHT22;52193;48.216;-1.698;2023-11-19T05:28:05;15.70;99.90
16863;DHT22;52193;48.216;-1.698;2023-11-19T05:30:33;15.70;99.90
16863;DHT22;52193;48.216;-1.698;2023-11-19T05:33:00;15.70;99.90
16863;DHT22;52193;48.216;-1.698;2023-11-19T05:35:27;15.70;99.90
16863;DHT22;52193;48.216;-1.698;2023-11-19T05:37:55;15.70;99.90
16863;DHT22;52193;48.216;-1.698;2023-11-19T05:40:22;15.70;99.90
16863;DHT22;52193;48.216;-1.698;2023-11-19T05:42:49;15.70;99.90
16863;DHT22;52193;48.216;-1.698;2023-11-19T05:45:16;15.70;99.90
16863;DHT22;52193;48.216;-1.698;2023-11-19T05:47:42;15.70;99.90
16863;DHT22;52193;48.216;-1.698;2023-11-19T05:50:10;15.70;99.90
16863;DHT22;52193;48.216;-1.698;2023-11-19T05:52:37;15.60;99.90
16863;DHT22;52193;48.216;-1.698;2023-11-19T05:55:06;15.60;99.90
16863;DHT22;52193;48.216;-1.698;2023-11-19T05:57:35;15.60;99.90
16863;DHT22;52193;48.216;-1.698;2023-11-19T06:00:03;15.60;99.90
16863;DHT22;52193;48.216;-1.698;2023-11-19T06:02:32;15.60;99.90
16863;DHT22;52193;48.216;-1.698;2023-11-19T06:04:59;15.60;99.90
16863;DHT22;52193;48.216;-1.698;2023-11-19T06:07:26;15.60;99.90
16863;DHT22;52193;48.216;-1.698;2023-11-19T06:09:53;15.60;99.90
16863;DHT22;52193;48.216;-1.698;2023-11-19T06:12:21;15.60;99.90
16863;DHT22;52193;48.216;-1.698;2023-11-19T06:14:48;15.60;99.90
16863;DHT22;52193;48.216;-1.698;2023-11-19T06:17:15;15.60;99.90
16863;DHT22;52193;48.216;-1.698;2023-11-19T06:19:42;15.70;99.90
16863;DHT22;52193;48.216;-1.698;2023-11-19T06:22:10;15.60;99.90
16863;DHT22;52193;48.216;-1.698;2023-11-19T06:24:37;15.60;99.90
16863;DHT22;52193;48.216;-1.698;2023-11-19T06:27:04;15.60;99.90
16863;DHT22;52193;48.216;-1.698;2023-11-19T06:29:32;15.60;99.90
16863;DHT22;52193;48.216;-1.698;2023-11-19T06:31:59;15.60;99.90
16863;DHT22;52193;48.216;-1.698;2023-11-19T06:34:26;15.60;99.90
16863;DHT22;52193;48.216;-1.698;2023-11-19T06:36:52;15.50;99.90
16863;DHT22;52193;48.216;-1.698;2023-11-19T06:39:19;15.50;99.90
16863;DHT22;52193;48.216;-1.698;2023-11-19T06:41:47;15.50;99.90
16863;DHT22;52193;48.216;-1.698;2023-11-19T06:44:14;15.50;99.90
16863;DHT22;52193;48.216;-1.698;2023-11-19T06:46:42;15.50;99.90
16863;DHT22;52193;48.216;-1.698;2023-11-19T06:49:09;15.50;99.90
16863;DHT22;52193;48.216;-1.698;2023-11-19T06:51:36;15.50;99.90
16863;DHT22;52193;48.216;-1.698;2023-11-19T06:54:07;15.50;99.90
16863;DHT22;52193;48.216;-1.698;2023-11-19T06:56:34;15.50;99.90
16863;DHT22;52193;48.216;-1.698;2023-11-19T06:59:00;15.50;99.90
16863;DHT22;52193;48.216;-1.698;2023-11-19T07:01:27;15.40;99.90
16863;DHT22;52193;48.216;-1.698;2023-11-19T07:03:55;15.50;99.90
16863;DHT22;52193;48.216;-1.698;2023-11-19T07:06:23;15.50;99.90
16863;DHT22;52193;48.216;-1.698;2023-11-19T07:08:50;15.50;99.90
16863;DHT22;52193;48.216;-1.698;2023-11-19T07:11:17;15.50;99.90
16863;DHT22;52193;48.216;-1.698;2023-11-19T07:13:43;15.40;99.90
16863;DHT22;52193;48.216;-1.698;2023-11-19T07:16:13;15.40;99.90
16863;DHT22;52193;48.216;-1.698;2023-11-19T07:18:40;15.40;99.90
16863;DHT22;52193;48.216;-1.698;2023-11-19T07:21:08;15.40;99.90
16863;DHT22;52193;48.216;-1.698;2023-11-19T07:23:36;15.40;99.90
16863;DHT22;52193;48.216;-1.698;2023-11-19T07:26:05;15.40;99.90
16863;DHT22;52193;48.216;-1.698;2023-11-19T07:28:33;15.40;99.90
16863;DHT22;52193;48.216;-1.698;2023-11-19T07:31:00;15.40;99.90
16863;DHT22;52193;48.216;-1.698;2023-11-19T07:33:27;15.40;99.90
16863;DHT22;52193;48.216;-1.698;2023-11-19T07:35:55;15.40;99.90
16863;DHT22;52193;48.216;-1.698;2023-11-19T07:38:24;15.30;99.90
16863;DHT22;52193;48.216;-1.698;2023-11-19T07:40:50;15.30;99.90
16863;DHT22;52193;48.216;-1.698;2023-11-19T07:43:17;15.30;99.90
16863;DHT22;52193;48.216;-1.698;2023-11-19T07:45:44;15.30;99.90
16863;DHT22;52193;48.216;-1.698;2023-11-19T07:48:11;15.30;99.90
16863;DHT22;52193;48.216;-1.698;2023-11-19T07:50:39;15.30;99.90
16863;DHT22;52193;48.216;-1.698;2023-11-19T07:53:07;15.30;99.90
16863;DHT22;52193;48.216;-1.698;2023-11-19T07:55:35;15.20;99.90
16863;DHT22;52193;48.216;-1.698;2023-11-19T07:58:02;15.20;99.90
16863;DHT22;52193;48.216;-1.698;2023-11-19T08:00:29;15.20;99.90
16863;DHT22;52193;48.216;-1.698;2023-11-19T08:02:56;15.20;99.90
16863;DHT22;52193;48.216;-1.698;2023-11-19T08:05:23;15.20;99.90
16863;DHT22;52193;48.216;-1.698;2023-11-19T08:07:50;15.20;99.90
16863;DHT22;52193;48.216;-1.698;2023-11-19T08:10:18;15.10;99.90
16863;DHT22;52193;48.216;-1.698;2023-11-19T08:12:46;15.10;99.90
16863;DHT22;52193;48.216;-1.698;2023-11-19T08:15:13;15.10;99.90
16863;DHT22;52193;48.216;-1.698;2023-11-19T08:17:41;15.10;99.90
16863;DHT22;52193;48.216;-1.698;2023-11-19T08:20:09;15.10;99.90
16863;DHT22;52193;48.216;-1.698;2023-11-19T08:22:36;15.00;99.90
16863;DHT22;52193;48.216;-1.698;2023-11-19T08:25:03;15.00;99.90
16863;DHT22;52193;48.216;-1.698;2023-11-19T08:27:30;15.00;99.90
16863;DHT22;52193;48.216;-1.698;2023-11-19T08:29:58;14.90;99.90
16863;DHT22;52193;48.216;-1.698;2023-11-19T08:32:26;14.90;99.90
16863;DHT22;52193;48.216;-1.698;2023-11-19T08:34:53;14.90;99.90
16863;DHT22;52193;48.216;-1.698;2023-11-19T08:37:21;14.90;99.90
16863;DHT22;52193;48.216;-1.698;2023-11-19T08:39:48;14.90;99.90
16863;DHT22;52193;48.216;-1.698;2023-11-19T08:42:15;14.90;99.90
16863;DHT22;52193;48.216;-1.698;2023-11-19T08:44:42;14.90;99.90
16863;DHT22;52193;48.216;-1.698;2023-11-19T08:47:13;14.90;99.90
16863;DHT22;52193;48.216;-1.698;2023-11-19T08:49:41;14.90;99.90
16863;DHT22;52193;48.216;-1.698;2023-11-19T08:52:08;14.90;99.90
16863;DHT22;52193;48.216;-1.698;2023-11-19T08:54:36;14.90;99.90
16863;DHT22;52193;48.216;-1.698;2023-11-19T08:57:03;14.90;99.90
16863;DHT22;52193;48.216;-1.698;2023-11-19T08:59:30;14.90;99.90
16863;DHT22;52193;48.216;-1.698;2023-11-19T09:01:57;14.90;99.90
16863;DHT22;52193;48.216;-1.698;2023-11-19T09:04:25;15.00;99.90
16863;DHT22;52193;48.216;-1.698;2023-11-19T09:06:51;15.00;99.90
16863;DHT22;52193;48.216;-1.698;2023-11-19T09:09:18;15.00;99.90
16863;DHT22;52193;48.216;-1.698;2023-11-19T09:11:45;15.00;99.90
16863;DHT22;52193;48.216;-1.698;2023-11-19T09:14:12;15.10;99.90
16863;DHT22;52193;48.216;-1.698;2023-11-19T09:16:39;15.10;99.90
16863;DHT22;52193;48.216;-1.698;2023-11-19T09:19:06;15.10;99.90
16863;DHT22;52193;48.216;-1.698;2023-11-19T09:21:34;15.20;99.90
16863;DHT22;52193;48.216;-1.698;2023-11-19T09:24:04;15.20;99.90
16863;DHT22;52193;48.216;-1.698;2023-11-19T09:26:33;15.20;99.90
16863;DHT22;52193;48.216;-1.698;2023-11-19T09:29:00;15.20;99.90
16863;DHT22;52193;48.216;-1.698;2023-11-19T09:31:26;15.30;99.90
16863;DHT22;52193;48.216;-1.698;2023-11-19T09:33:53;15.30;99.90
16863;DHT22;52193;48.216;-1.698;2023-11-19T09:36:20;15.30;99.90
16863;DHT22;52193;48.216;-1.698;2023-11-19T09:38:48;15.30;99.90
16863;DHT22;52193;48.216;-1.698;2023-11-19T09:41:16;15.40;99.90
16863;DHT22;52193;48.216;-1.698;2023-11-19T09:43:45;15.40;99.90
16863;DHT22;52193;48.216;-1.698;2023-11-19T09:46:14;15.40;99.90
16863;DHT22;52193;48.216;-1.698;2023-11-19T09:48:42;15.50;99.90
16863;DHT22;52193;48.216;-1.698;2023-11-19T09:51:10;15.50;99.90
16863;DHT22;52193;48.216;-1.698;2023-11-19T09:53:38;15.50;99.90
16863;DHT22;52193;48.216;-1.698;2023-11-19T09:56:07;15.50;99.90
16863;DHT22;52193;48.216;-1.698;2023-11-19T09:58:34;15.50;99.90
16863;DHT22;52193;48.216;-1.698;2023-11-19T10:01:01;15.50;99.90
16863;DHT22;52193;48.216;-1.698;2023-11-19T10:03:33;15.60;99.90
16863;DHT22;52193;48.216;-1.698;2023-11-19T10:06:01;15.60;99.90
16863;DHT22;52193;48.216;-1.698;2023-11-19T10:08:28;15.60;99.90
16863;DHT22;52193;48.216;-1.698;2023-11-19T10:10:54;15.60;99.90
16863;DHT22;52193;48.216;-1.698;2023-11-19T10:13:28;15.60;99.90
16863;DHT22;52193;48.216;-1.698;2023-11-19T10:15:56;15.70;99.90
16863;DHT22;52193;48.216;-1.698;2023-11-19T10:18:24;15.70;99.90
16863;DHT22;52193;48.216;-1.698;2023-11-19T10:20:52;15.80;99.90
16863;DHT22;52193;48.216;-1.698;2023-11-19T10:23:20;15.80;99.90
16863;DHT22;52193;48.216;-1.698;2023-11-19T10:25:47;15.80;99.90
16863;DHT22;52193;48.216;-1.698;2023-11-19T10:28:15;15.80;99.90
16863;DHT22;52193;48.216;-1.698;2023-11-19T10:30:44;15.80;99.90
16863;DHT22;52193;48.216;-1.698;2023-11-19T10:33:11;15.90;99.90
16863;DHT22;52193;48.216;-1.698;2023-11-19T10:35:51;15.90;99.90
16863;DHT22;52193;48.216;-1.698;2023-11-19T10:38:19;15.90;99.90
16863;DHT22;52193;48.216;-1.698;2023-11-19T10:40:46;16.00;99.90
16863;DHT22;52193;48.216;-1.698;2023-11-19T10:43:13;16.00;99.90
16863;DHT22;52193;48.216;-1.698;2023-11-19T10:45:40;16.00;99.90
16863;DHT22;52193;48.216;-1.698;2023-11-19T10:48:09;16.00;99.90
16863;DHT22;52193;48.216;-1.698;2023-11-19T10:50:37;16.00;99.90
16863;DHT22;52193;48.216;-1.698;2023-11-19T10:53:05;16.10;99.90
16863;DHT22;52193;48.216;-1.698;2023-11-19T10:55:33;16.10;99.90
16863;DHT22;52193;48.216;-1.698;2023-11-19T10:58:03;16.10;99.90
16863;DHT22;52193;48.216;-1.698;2023-11-19T11:00:38;16.20;99.90
16863;DHT22;52193;48.216;-1.698;2023-11-19T11:03:10;16.20;99.90
16863;DHT22;52193;48.216;-1.698;2023-11-19T11:05:38;16.20;99.90
16863;DHT22;52193;48.216;-1.698;2023-11-19T11:08:06;16.30;99.90
16863;DHT22;52193;48.216;-1.698;2023-11-19T11:10:39;16.30;99.90
16863;DHT22;52193;48.216;-1.698;2023-11-19T11:13:09;16.30;99.90
16863;DHT22;52193;48.216;-1.698;2023-11-19T11:15:37;16.30;99.90
16863;DHT22;52193;48.216;-1.698;2023-11-19T11:18:09;16.30;99.90
16863;DHT22;52193;48.216;-1.698;2023-11-19T11:20:36;16.30;99.90
16863;DHT22;52193;48.216;-1.698;2023-11-19T11:23:27;16.30;99.90
16863;DHT22;52193;48.216;-1.698;2023-11-19T11:26:08;16.40;99.90
16863;DHT22;52193;48.216;-1.698;2023-11-19T11:28:43;16.40;99.90
16863;DHT22;52193;48.216;-1.698;2023-11-19T11:31:23;16.40;99.90
16863;DHT22;52193;48.216;-1.698;2023-11-19T11:36:58;16.40;99.90
16863;DHT22;52193;48.216;-1.698;2023-11-19T11:39:29;16.40;99.90
16863;DHT22;52193;48.216;-1.698;2023-11-19T11:44:59;16.50;99.90
16863;DHT22;52193;48.216;-1.698;2023-11-19T11:48:09;16.50;99.90
16863;DHT22;52193;48.216;-1.698;2023-11-19T11:50:49;16.50;99.90
16863;DHT22;52193;48.216;-1.698;2023-11-19T11:53:17;16.60;99.90
16863;DHT22;52193;48.216;-1.698;2023-11-19T11:55:55;16.60;99.90
16863;DHT22;52193;48.216;-1.698;2023-11-19T11:58:32;16.60;99.90
16863;DHT22;52193;48.216;-1.698;2023-11-19T12:01:03;16.60;99.90
16863;DHT22;52193;48.216;-1.698;2023-11-19T12:03:32;16.70;99.90
16863;DHT22;52193;48.216;-1.698;2023-11-19T12:06:00;16.70;99.90
16863;DHT22;52193;48.216;-1.698;2023-11-19T12:08:29;16.80;99.90
16863;DHT22;52193;48.216;-1.698;2023-11-19T12:10:58;16.80;99.90
16863;DHT22;52193;48.216;-1.698;2023-11-19T12:13:42;16.80;99.90
16863;DHT22;52193;48.216;-1.698;2023-11-19T12:16:11;16.80;99.90
16863;DHT22;52193;48.216;-1.698;2023-11-19T12:18:40;16.80;99.90
16863;DHT22;52193;48.216;-1.698;2023-11-19T12:21:09;16.80;99.90
16863;DHT22;52193;48.216;-1.698;2023-11-19T12:23:45;16.80;99.90
16863;DHT22;52193;48.216;-1.698;2023-11-19T12:26:35;16.80;99.90
16863;DHT22;52193;48.216;-1.698;2023-11-19T12:29:02;16.80;99.90
16863;DHT22;52193;48.216;-1.698;2023-11-19T12:31:33;16.80;99.90
16863;DHT22;52193;48.216;-1.698;2023-11-19T12:34:08;16.90;99.90
16863;DHT22;52193;48.216;-1.698;2023-11-19T12:36:39;16.90;99.90
16863;DHT22;52193;48.216;-1.698;2023-11-19T12:39:07;16.90;99.90
16863;DHT22;52193;48.216;-1.698;2023-11-19T12:41:49;16.90;99.90
16863;DHT22;52193;48.216;-1.698;2023-11-19T12:44:16;16.90;99.90
16863;DHT22;52193;48.216;-1.698;2023-11-19T12:46:43;16.90;99.90
16863;DHT22;52193;48.216;-1.698;2023-11-19T12:49:11;17.00;99.90
16863;DHT22;52193;48.216;-1.698;2023-11-19T12:51:39;17.00;99.90
16863;DHT22;52193;48.216;-1.698;2023-11-19T12:54:06;16.90;99.90
16863;DHT22;52193;48.216;-1.698;2023-11-19T12:56:33;16.90;99.90
16863;DHT22;52193;48.216;-1.698;2023-11-19T12:59:10;16.90;99.90
16863;DHT22;52193;48.216;-1.698;2023-11-19T13:01:38;16.90;99.90
16863;DHT22;52193;48.216;-1.698;2023-11-19T13:04:16;16.90;99.90
16863;DHT22;52193;48.216;-1.698;2023-11-19T13:06:46;16.90;99.90
16863;DHT22;52193;48.216;-1.698;2023-11-19T13:09:21;16.90;99.90
16863;DHT22;52193;48.216;-1.698;2023-11-19T13:11:48;17.00;99.90
16863;DHT22;52193;48.216;-1.698;2023-11-19T13:14:14;17.00;99.90
16863;DHT22;52193;48.216;-1.698;2023-11-19T13:16:41;17.00;99.90
16863;DHT22;52193;48.216;-1.698;2023-11-19T13:19:08;17.10;99.90
16863;DHT22;52193;48.216;-1.698;2023-11-19T13:21:35;17.10;99.90
16863;DHT22;52193;48.216;-1.698;2023-11-19T13:24:04;17.20;99.90
16863;DHT22;52193;48.216;-1.698;2023-11-19T13:26:31;17.20;99.90
16863;DHT22;52193;48.216;-1.698;2023-11-19T13:28:58;17.30;99.90
16863;DHT22;52193;48.216;-1.698;2023-11-19T13:31:25;17.30;99.90
16863;DHT22;52193;48.216;-1.698;2023-11-19T13:33:52;17.40;99.90
16863;DHT22;52193;48.216;-1.698;2023-11-19T13:36:19;17.40;99.90
16863;DHT22;52193;48.216;-1.698;2023-11-19T13:38:46;17.40;99.90
16863;DHT22;52193;48.216;-1.698;2023-11-19T13:41:14;17.40;99.90
16863;DHT22;52193;48.216;-1.698;2023-11-19T13:43:41;17.50;99.90
16863;DHT22;52193;48.216;-1.698;2023-11-19T13:46:08;17.60;99.90
16863;DHT22;52193;48.216;-1.698;2023-11-19T13:48:35;17.60;99.90
16863;DHT22;52193;48.216;-1.698;2023-11-19T13:51:02;17.60;99.90
16863;DHT22;52193;48.216;-1.698;2023-11-19T13:53:29;17.60;99.90
16863;DHT22;52193;48.216;-1.698;2023-11-19T13:55:55;17.70;99.90
16863;DHT22;52193;48.216;-1.698;2023-11-19T13:58:23;17.70;99.90
16863;DHT22;52193;48.216;-1.698;2023-11-19T14:00:50;17.70;99.90
16863;DHT22;52193;48.216;-1.698;2023-11-19T14:03:17;17.80;99.90
16863;DHT22;52193;48.216;-1.698;2023-11-19T14:05:44;17.80;99.90
16863;DHT22;52193;48.216;-1.698;2023-11-19T14:08:11;17.80;99.90
16863;DHT22;52193;48.216;-1.698;2023-11-19T14:10:38;17.80;99.90
16863;DHT22;52193;48.216;-1.698;2023-11-19T14:13:06;17.80;99.90
16863;DHT22;52193;48.216;-1.698;2023-11-19T14:15:34;17.90;99.90
16863;DHT22;52193;48.216;-1.698;2023-11-19T14:18:02;17.80;99.90
16863;DHT22;52193;48.216;-1.698;2023-11-19T14:20:29;17.80;99.90
16863;DHT22;52193;48.216;-1.698;2023-11-19T14:22:56;17.80;99.90
16863;DHT22;52193;48.216;-1.698;2023-11-19T14:25:23;17.80;99.90
16863;DHT22;52193;48.216;-1.698;2023-11-19T14:27:49;17.90;99.90
16863;DHT22;52193;48.216;-1.698;2023-11-19T14:30:16;17.90;99.90
16863;DHT22;52193;48.216;-1.698;2023-11-19T14:32:45;17.90;99.90
16863;DHT22;52193;48.216;-1.698;2023-11-19T14:35:14;17.90;99.90
16863;DHT22;52193;48.216;-1.698;2023-11-19T14:37:40;17.90;99.90
16863;DHT22;52193;48.216;-1.698;2023-11-19T14:40:08;18.00;99.90
16863;DHT22;52193;48.216;-1.698;2023-11-19T14:42:36;18.00;99.90
16863;DHT22;52193;48.216;-1.698;2023-11-19T14:45:05;18.00;99.90
16863;DHT22;52193;48.216;-1.698;2023-11-19T14:47:32;18.00;99.90
16863;DHT22;52193;48.216;-1.698;2023-11-19T14:50:00;18.00;99.90
16863;DHT22;52193;48.216;-1.698;2023-11-19T14:52:28;18.00;99.90
16863;DHT22;52193;48.216;-1.698;2023-11-19T14:54:55;17.90;99.90
16863;DHT22;52193;48.216;-1.698;2023-11-19T14:57:22;17.90;99.90
16863;DHT22;52193;48.216;-1.698;2023-11-19T14:59:48;17.90;99.90
16863;DHT22;52193;48.216;-1.698;2023-11-19T15:02:14;17.90;99.90
16863;DHT22;52193;48.216;-1.698;2023-11-19T15:04:41;17.90;99.90
16863;DHT22;52193;48.216;-1.698;2023-11-19T15:07:11;17.80;99.90
16863;DHT22;52193;48.216;-1.698;2023-11-19T15:09:37;17.90;99.90
16863;DHT22;52193;48.216;-1.698;2023-11-19T15:12:05;17.80;99.90
16863;DHT22;52193;48.216;-1.698;2023-11-19T15:14:32;17.70;99.90
16863;DHT22;52193;48.216;-1.698;2023-11-19T15:16:59;17.70;99.90
16863;DHT22;52193;48.216;-1.698;2023-11-19T15:19:26;17.70;99.90
16863;DHT22;52193;48.216;-1.698;2023-11-19T15:21:53;17.70;99.90
16863;DHT22;52193;48.216;-1.698;2023-11-19T15:24:22;17.60;99.90
16863;DHT22;52193;48.216;-1.698;2023-11-19T15:26:50;17.60;99.90